sensor_id;sensor_type;location;lat;lon;timestamp;P1;durP1;ratioP1;P2;durP2;ratioP2
22752;SDS011;11543;43.144;24.684;2023-04-15T00:00:44;5.38;;;2.75;;
22752;SDS011;11543;43.144;24.684;2023-04-15T00:03:09;10.68;;;3.90;;
22752;SDS011;11543;43.144;24.684;2023-04-15T00:05:47;7.18;;;3.50;;
22752;SDS011;11543;43.144;24.684;2023-04-15T00:08:16;4.72;;;3.35;;
22752;SDS011;11543;43.144;24.684;2023-04-15T00:35:44;6.85;;;3.45;;
22752;SDS011;11543;43.144;24.684;2023-04-15T00:38:10;8.13;;;4.50;;
22752;SDS011;11543;43.144;24.684;2023-04-15T00:40:36;6.68;;;2.30;;
22752;SDS011;11543;43.144;24.684;2023-04-15T00:43:02;3.50;;;1.98;;
22752;SDS011;11543;43.144;24.684;2023-04-15T00:45:28;5.30;;;2.25;;
22752;SDS011;11543;43.144;24.684;2023-04-15T00:47:54;3.35;;;1.90;;
22752;SDS011;11543;43.144;24.684;2023-04-15T00:50:23;4.60;;;2.53;;
22752;SDS011;11543;43.144;24.684;2023-04-15T00:52:49;4.70;;;2.42;;
22752;SDS011;11543;43.144;24.684;2023-04-15T00:55:14;7.78;;;3.33;;
22752;SDS011;11543;43.144;24.684;2023-04-15T00:57:40;5.15;;;2.40;;
22752;SDS011;11543;43.144;24.684;2023-04-15T01:00:06;6.68;;;2.25;;
22752;SDS011;11543;43.144;24.684;2023-04-15T01:02:33;6.00;;;2.85;;
22752;SDS011;11543;43.144;24.684;2023-04-15T01:05:03;4.10;;;2.35;;
22752;SDS011;11543;43.144;24.684;2023-04-15T01:07:29;4.53;;;2.20;;
22752;SDS011;11543;43.144;24.684;2023-04-15T01:09:55;3.40;;;2.13;;
22752;SDS011;11543;43.144;24.684;2023-04-15T01:12:24;5.40;;;2.28;;
22752;SDS011;11543;43.144;24.684;2023-04-15T01:17:42;4.20;;;2.55;;
22752;SDS011;11543;43.144;24.684;2023-04-15T01:20:12;3.80;;;2.70;;
22752;SDS011;11543;43.144;24.684;2023-04-15T01:22:40;4.40;;;2.47;;
22752;SDS011;11543;43.144;24.684;2023-04-15T01:25:09;6.00;;;2.80;;
22752;SDS011;11543;43.144;24.684;2023-04-15T01:27:38;5.03;;;2.63;;
22752;SDS011;11543;43.144;24.684;2023-04-15T01:30:06;5.45;;;2.33;;
22752;SDS011;11543;43.144;24.684;2023-04-15T01:32:32;4.28;;;2.25;;
22752;SDS011;11543;43.144;24.684;2023-04-15T01:34:58;4.10;;;1.92;;
22752;SDS011;11543;43.144;24.684;2023-04-15T01:37:24;5.78;;;2.20;;
22752;SDS011;11543;43.144;24.684;2023-04-15T01:39:50;4.72;;;2.40;;
22752;SDS011;11543;43.144;24.684;2023-04-15T01:42:16;3.28;;;2.08;;
22752;SDS011;11543;43.144;24.684;2023-04-15T01:44:42;5.10;;;2.42;;
22752;SDS011;11543;43.144;24.684;2023-04-15T01:47:07;4.15;;;2.33;;
22752;SDS011;11543;43.144;24.684;2023-04-15T01:49:33;4.88;;;2.45;;
22752;SDS011;11543;43.144;24.684;2023-04-15T01:51:58;6.43;;;2.63;;
22752;SDS011;11543;43.144;24.684;2023-04-15T01:54:24;10.63;;;2.70;;
22752;SDS011;11543;43.144;24.684;2023-04-15T01:56:51;5.63;;;2.42;;
22752;SDS011;11543;43.144;24.684;2023-04-15T02:09:40;3.80;;;2.03;;
22752;SDS011;11543;43.144;24.684;2023-04-15T02:12:28;4.27;;;1.87;;
22752;SDS011;11543;43.144;24.684;2023-04-15T02:15:32;3.15;;;2.00;;
22752;SDS011;11543;43.144;24.684;2023-04-15T02:21:30;3.58;;;1.17;;
22752;SDS011;11543;43.144;24.684;2023-04-15T02:23:58;2.38;;;1.10;;
22752;SDS011;11543;43.144;24.684;2023-04-15T02:26:29;3.40;;;0.90;;
22752;SDS011;11543;43.144;24.684;2023-04-15T02:36:40;4.28;;;1.17;;
22752;SDS011;11543;43.144;24.684;2023-04-15T02:39:05;2.97;;;1.70;;
22752;SDS011;11543;43.144;24.684;2023-04-15T02:41:56;3.60;;;2.10;;
22752;SDS011;11543;43.144;24.684;2023-04-15T02:48:14;6.18;;;2.00;;
22752;SDS011;11543;43.144;24.684;2023-04-15T03:23:15;5.10;;;2.50;;
22752;SDS011;11543;43.144;24.684;2023-04-15T03:36:20;6.38;;;3.00;;
22752;SDS011;11543;43.144;24.684;2023-04-15T03:38:46;8.63;;;3.33;;
22752;SDS011;11543;43.144;24.684;2023-04-15T03:41:14;10.45;;;4.93;;
22752;SDS011;11543;43.144;24.684;2023-04-15T03:43:39;11.48;;;4.55;;
22752;SDS011;11543;43.144;24.684;2023-04-15T03:53:43;19.42;;;11.10;;
22752;SDS011;11543;43.144;24.684;2023-04-15T04:03:45;8.73;;;4.30;;
22752;SDS011;11543;43.144;24.684;2023-04-15T04:06:13;7.55;;;4.10;;
22752;SDS011;11543;43.144;24.684;2023-04-15T04:26:15;8.07;;;3.60;;
22752;SDS011;11543;43.144;24.684;2023-04-15T04:36:36;7.93;;;4.60;;
22752;SDS011;11543;43.144;24.684;2023-04-15T04:39:07;10.73;;;5.00;;
22752;SDS011;11543;43.144;24.684;2023-04-15T04:41:35;13.95;;;7.25;;
22752;SDS011;11543;43.144;24.684;2023-04-15T04:44:03;13.90;;;8.07;;
22752;SDS011;11543;43.144;24.684;2023-04-15T04:46:29;12.70;;;6.97;;
22752;SDS011;11543;43.144;24.684;2023-04-15T04:48:57;8.73;;;5.90;;
22752;SDS011;11543;43.144;24.684;2023-04-15T04:55:28;8.43;;;5.72;;
22752;SDS011;11543;43.144;24.684;2023-04-15T05:04:28;11.38;;;6.32;;
22752;SDS011;11543;43.144;24.684;2023-04-15T05:06:56;10.52;;;4.38;;
22752;SDS011;11543;43.144;24.684;2023-04-15T05:09:22;7.57;;;4.38;;
22752;SDS011;11543;43.144;24.684;2023-04-15T05:11:51;6.90;;;4.93;;
22752;SDS011;11543;43.144;24.684;2023-04-15T05:18:37;7.82;;;4.53;;
22752;SDS011;11543;43.144;24.684;2023-04-15T05:22:04;8.80;;;3.97;;
22752;SDS011;11543;43.144;24.684;2023-04-15T05:24:45;11.25;;;7.10;;
22752;SDS011;11543;43.144;24.684;2023-04-15T05:37:34;33.30;;;19.05;;
22752;SDS011;11543;43.144;24.684;2023-04-15T05:54:07;17.05;;;9.02;;
22752;SDS011;11543;43.144;24.684;2023-04-15T05:59:51;14.85;;;9.27;;
22752;SDS011;11543;43.144;24.684;2023-04-15T06:02:23;19.30;;;11.50;;
22752;SDS011;11543;43.144;24.684;2023-04-15T06:05:13;21.58;;;13.55;;
22752;SDS011;11543;43.144;24.684;2023-04-15T06:07:54;20.52;;;12.70;;
22752;SDS011;11543;43.144;24.684;2023-04-15T06:10:40;17.90;;;11.33;;
22752;SDS011;11543;43.144;24.684;2023-04-15T06:13:06;13.38;;;9.30;;
22752;SDS011;11543;43.144;24.684;2023-04-15T06:15:32;14.10;;;7.85;;
22752;SDS011;11543;43.144;24.684;2023-04-15T06:17:58;14.20;;;7.55;;
22752;SDS011;11543;43.144;24.684;2023-04-15T06:20:24;16.00;;;7.43;;
22752;SDS011;11543;43.144;24.684;2023-04-15T06:22:50;11.52;;;6.07;;
22752;SDS011;11543;43.144;24.684;2023-04-15T06:25:16;11.40;;;5.22;;
22752;SDS011;11543;43.144;24.684;2023-04-15T06:27:42;13.15;;;5.30;;
22752;SDS011;11543;43.144;24.684;2023-04-15T06:30:53;10.48;;;5.32;;
22752;SDS011;11543;43.144;24.684;2023-04-15T06:33:19;11.30;;;4.63;;
22752;SDS011;11543;43.144;24.684;2023-04-15T06:39:21;4.38;;;2.75;;
22752;SDS011;11543;43.144;24.684;2023-04-15T06:42:33;9.32;;;3.20;;
22752;SDS011;11543;43.144;24.684;2023-04-15T06:45:02;6.43;;;2.92;;
22752;SDS011;11543;43.144;24.684;2023-04-15T06:47:33;5.47;;;2.92;;
22752;SDS011;11543;43.144;24.684;2023-04-15T06:50:11;6.72;;;2.70;;
22752;SDS011;11543;43.144;24.684;2023-04-15T06:53:28;6.13;;;2.15;;
22752;SDS011;11543;43.144;24.684;2023-04-15T06:56:10;8.00;;;2.33;;
22752;SDS011;11543;43.144;24.684;2023-04-15T06:58:38;4.70;;;1.42;;
22752;SDS011;11543;43.144;24.684;2023-04-15T07:01:04;2.83;;;1.10;;
22752;SDS011;11543;43.144;24.684;2023-04-15T07:03:32;3.15;;;1.10;;
22752;SDS011;11543;43.144;24.684;2023-04-15T07:09:25;5.78;;;2.00;;
22752;SDS011;11543;43.144;24.684;2023-04-15T07:18:18;7.75;;;4.38;;
22752;SDS011;11543;43.144;24.684;2023-04-15T07:21:10;8.27;;;3.20;;
22752;SDS011;11543;43.144;24.684;2023-04-15T07:24:18;3.67;;;1.80;;
22752;SDS011;11543;43.144;24.684;2023-04-15T09:17:21;3.83;;;1.50;;
22752;SDS011;11543;43.144;24.684;2023-04-15T13:55:44;4.03;;;0.70;;
22752;SDS011;11543;43.144;24.684;2023-04-15T14:02:06;3.30;;;0.80;;
22752;SDS011;11543;43.144;24.684;2023-04-15T14:04:32;2.55;;;0.70;;
22752;SDS011;11543;43.144;24.684;2023-04-15T14:07:00;3.25;;;0.70;;
22752;SDS011;11543;43.144;24.684;2023-04-15T14:09:44;5.50;;;0.80;;
22752;SDS011;11543;43.144;24.684;2023-04-15T14:29:28;2.00;;;0.60;;
22752;SDS011;11543;43.144;24.684;2023-04-15T14:38:59;3.50;;;0.90;;
22752;SDS011;11543;43.144;24.684;2023-04-15T15:16:30;1.42;;;0.65;;
22752;SDS011;11543;43.144;24.684;2023-04-15T15:29:20;2.80;;;0.80;;
22752;SDS011;11543;43.144;24.684;2023-04-15T15:31:45;4.55;;;0.77;;
22752;SDS011;11543;43.144;24.684;2023-04-15T15:34:14;4.57;;;0.90;;
22752;SDS011;11543;43.144;24.684;2023-04-15T15:52:54;3.85;;;0.60;;
22752;SDS011;11543;43.144;24.684;2023-04-15T15:55:30;5.97;;;1.73;;
22752;SDS011;11543;43.144;24.684;2023-04-15T15:58:01;3.30;;;1.15;;
22752;SDS011;11543;43.144;24.684;2023-04-15T16:00:36;37.58;;;15.20;;
22752;SDS011;11543;43.144;24.684;2023-04-15T16:13:30;3.78;;;1.20;;
22752;SDS011;11543;43.144;24.684;2023-04-15T16:15:59;6.03;;;2.33;;
22752;SDS011;11543;43.144;24.684;2023-04-15T16:33:01;5.60;;;1.60;;
22752;SDS011;11543;43.144;24.684;2023-04-15T16:35:45;8.93;;;0.90;;
22752;SDS011;11543;43.144;24.684;2023-04-15T16:38:30;2.83;;;0.88;;
22752;SDS011;11543;43.144;24.684;2023-04-15T16:40:59;4.15;;;1.60;;
22752;SDS011;11543;43.144;24.684;2023-04-15T16:43:55;3.40;;;1.20;;
22752;SDS011;11543;43.144;24.684;2023-04-15T16:46:22;7.18;;;1.98;;
22752;SDS011;11543;43.144;24.684;2023-04-15T16:48:47;5.03;;;1.85;;
22752;SDS011;11543;43.144;24.684;2023-04-15T16:51:17;14.73;;;4.70;;
22752;SDS011;11543;43.144;24.684;2023-04-15T16:53:45;4.10;;;1.40;;
22752;SDS011;11543;43.144;24.684;2023-04-15T16:56:20;6.90;;;2.03;;
22752;SDS011;11543;43.144;24.684;2023-04-15T16:59:18;11.20;;;4.57;;
22752;SDS011;11543;43.144;24.684;2023-04-15T17:01:48;10.00;;;3.58;;
22752;SDS011;11543;43.144;24.684;2023-04-15T17:04:47;9.00;;;2.53;;
22752;SDS011;11543;43.144;24.684;2023-04-15T17:07:21;9.77;;;3.75;;
22752;SDS011;11543;43.144;24.684;2023-04-15T17:09:52;12.10;;;4.07;;
22752;SDS011;11543;43.144;24.684;2023-04-15T17:12:24;10.82;;;4.55;;
22752;SDS011;11543;43.144;24.684;2023-04-15T17:15:09;10.50;;;3.83;;
22752;SDS011;11543;43.144;24.684;2023-04-15T17:17:47;7.85;;;4.60;;
22752;SDS011;11543;43.144;24.684;2023-04-15T17:20:13;6.30;;;3.20;;
22752;SDS011;11543;43.144;24.684;2023-04-15T17:22:48;9.27;;;4.57;;
22752;SDS011;11543;43.144;24.684;2023-04-15T17:32:44;12.70;;;7.70;;
22752;SDS011;11543;43.144;24.684;2023-04-15T17:39:00;19.48;;;10.52;;
22752;SDS011;11543;43.144;24.684;2023-04-15T17:45:29;14.60;;;7.97;;
22752;SDS011;11543;43.144;24.684;2023-04-15T17:47:54;10.98;;;6.90;;
22752;SDS011;11543;43.144;24.684;2023-04-15T17:51:12;21.85;;;10.05;;
22752;SDS011;11543;43.144;24.684;2023-04-15T17:58:22;7.07;;;4.25;;
22752;SDS011;11543;43.144;24.684;2023-04-15T18:07:20;15.13;;;8.25;;
22752;SDS011;11543;43.144;24.684;2023-04-15T18:09:46;15.43;;;8.82;;
22752;SDS011;11543;43.144;24.684;2023-04-15T18:12:20;10.73;;;5.30;;
22752;SDS011;11543;43.144;24.684;2023-04-15T18:14:46;6.72;;;1.77;;
22752;SDS011;11543;43.144;24.684;2023-04-15T18:17:14;4.85;;;1.63;;
22752;SDS011;11543;43.144;24.684;2023-04-15T18:19:39;3.83;;;1.40;;
22752;SDS011;11543;43.144;24.684;2023-04-15T18:25:26;2.05;;;1.00;;
22752;SDS011;11543;43.144;24.684;2023-04-15T18:27:52;3.58;;;1.40;;
22752;SDS011;11543;43.144;24.684;2023-04-15T18:30:21;6.22;;;1.98;;
22752;SDS011;11543;43.144;24.684;2023-04-15T18:35:34;3.45;;;1.30;;
22752;SDS011;11543;43.144;24.684;2023-04-15T18:38:25;3.15;;;1.30;;
22752;SDS011;11543;43.144;24.684;2023-04-15T18:53:49;19.95;;;7.90;;
22752;SDS011;11543;43.144;24.684;2023-04-15T18:59:04;16.58;;;7.88;;
22752;SDS011;11543;43.144;24.684;2023-04-15T19:01:32;19.20;;;8.60;;
22752;SDS011;11543;43.144;24.684;2023-04-15T19:03:57;12.45;;;6.30;;
22752;SDS011;11543;43.144;24.684;2023-04-15T19:10:02;11.20;;;8.10;;
22752;SDS011;11543;43.144;24.684;2023-04-15T19:27:05;4.72;;;1.85;;
22752;SDS011;11543;43.144;24.684;2023-04-15T20:05:23;51.15;;;21.33;;
22752;SDS011;11543;43.144;24.684;2023-04-15T20:07:49;52.05;;;22.10;;
22752;SDS011;11543;43.144;24.684;2023-04-15T20:13:50;49.80;;;22.00;;
22752;SDS011;11543;43.144;24.684;2023-04-15T20:38:16;22.67;;;9.75;;
22752;SDS011;11543;43.144;24.684;2023-04-15T20:41:13;24.27;;;11.88;;
